New Middletown, Ohio
Current Conditions -  °F | °C
As of 9:51 PM on Monday 20 Oct 2014 (Local Time) from KYNG Reporting Station
Light Rain Light Rain  
Wind Chill: 50°   Ceiling: 2000
Heat Index: 50°   Visibility: 8mi
Dew Point: 47°   Wind: 6mph
Humidity: 89%   Direction: 180°S
Pressure: 29.86"   Gusts: NA
Location:  40.96°N, 80.56°W
Report Text: KYNG 210151Z 18005KT 8SM -RA BKN020 OVC028 10/08 A2986 RMK AO2 SLP114 P0000 T01000083
Loading
Personal Weather Stations






























Interactive Weather Map
Tropical Storm Tracking
New forecast layout! Learn more

10-Day Weather Forecast

Advertisements
Track Severe Weather on mobile